If you wish to contribute or participate in the discussions about articles you are invited to join SKYbrary as a registered user

 Actions

Kodiak Airport

From SKYbrary Wiki

PADQ
Airport
ICAO: PADQ
Summary
Name Kodiak Airport
Region North America
Territory Alaska US.gif
Location Kodiak
Serving
Coordinates 57° 44' 59.88" N, 152° 29' 37.86" W
Runways
Designator Length Width Surface ROPS
7/25 2299 m7,542.651 ft
46 m150.919 ft
ASP yes/yes
11/29 1646 m5,400.262 ft
46 m150.919 ft
ASP yes/yes
18/36 1528 m5,013.123 ft
46 m150.919 ft
ASP yes/yes


METAR
Observation PADQ 172253Z 31008KT 10SM FEW027 OVC070 07/03 A2908 RMK AO2 SLP848 T00720028
Station Kodiak, Kodiak Airport
Date/Time 17 October 2019 22:53:00
Wind direction 310°
Wind speed 08 kts
Lowest cloud amount few clouds
Temperature 7.2°C
Dew point 2.8°C
Humidity 73%
QNH hPa
Weather condition n/a

BS
Tag(s) Bird Strike
BS
Tag(s) Non Avian Wildlife Hazards to Aircraft
CFIT
Tag(s) Altimeter Temperature Error Correction

Kodiak Airport

ICAO: PADQ IATA: ADQ

Description

Regional airport serving Kodiak Island, Alaska.

Climatology

The community of Kodiak lies within the subpolar oceanic climate zone (Köppen Cfc), marked by relatively long and cold winters and mild summers. Precipitation is heavy year-round, though markedly less in the summer months.

Maps

Terrain

Loading map...

Airport Layout

Loading map...


Accidents & Serious Incidents at or in vicinity of PADQ

None on SKYbrary